Time;durP1;ratioP1;P1;durP2;ratioP2;P2;SDS_P1;SDS_P2;PMS_P1;PMS_P2;Temp;Humidity;BMP_temperature;BMP_pressure;BME280_temperature;BME280_humidity;BME280_pressure;Samples;Min_cycle;Max_cycle;Signal;HPM_P1;HPM_P2
2022/05/01 00:00:27;;;;;;;18.60;10.48;;;4.10;99.90;;;;;;5073685;28;20396;-62
2022/05/01 00:02:54;;;;;;;14.88;10.35;;;4.10;99.90;;;;;;5072396;28;20053;-62
2022/05/01 00:05:21;;;;;;;15.63;11.48;;;4.20;99.90;;;;;;5073945;28;20098;-63
2022/05/01 00:07:48;;;;;;;16.55;10.95;;;4.10;99.90;;;;;;5072538;28;20920;-63
2022/05/01 00:10:16;;;;;;;13.70;10.77;;;4.00;99.90;;;;;;5073560;28;20083;-63
2022/05/01 00:12:43;;;;;;;17.77;11.32;;;4.00;99.90;;;;;;5072077;28;20132;-63
2022/05/01 00:15:11;;;;;;;15.00;11.20;;;4.00;99.90;;;;;;5073269;28;20135;-63
2022/05/01 00:17:38;;;;;;;16.85;11.43;;;3.90;99.90;;;;;;5072952;28;20091;-61
2022/05/01 00:20:06;;;;;;;14.80;10.65;;;3.90;99.90;;;;;;5073013;28;20074;-62
2022/05/01 00:22:32;;;;;;;15.98;10.82;;;3.90;99.90;;;;;;5072216;28;20092;-62
2022/05/01 00:24:59;;;;;;;16.00;11.38;;;3.90;99.90;;;;;;5071833;28;20140;-62
2022/05/01 00:27:27;;;;;;;18.40;10.98;;;3.80;99.90;;;;;;5072098;28;20099;-62
2022/05/01 00:29:56;;;;;;;16.15;11.20;;;3.80;99.90;;;;;;5071542;28;20554;-63
2022/05/01 00:32:23;;;;;;;14.43;11.10;;;3.90;99.90;;;;;;5073342;28;20500;-63
2022/05/01 00:37:34;;;;;;;20.67;12.90;;;3.80;99.90;;;;;;5072977;28;20376;-63
2022/05/01 00:40:00;;;;;;;18.25;12.60;;;3.70;99.90;;;;;;5073300;28;20076;-63
2022/05/01 00:42:29;;;;;;;17.67;11.63;;;3.70;99.90;;;;;;5071578;28;20056;-62
2022/05/01 00:44:55;;;;;;;16.33;11.52;;;3.70;99.90;;;;;;5073632;28;20127;-62
2022/05/01 00:47:22;;;;;;;16.35;11.90;;;3.70;99.90;;;;;;5071518;28;20140;-63
2022/05/01 00:49:49;;;;;;;19.48;11.57;;;3.60;99.90;;;;;;5070645;28;20052;-62
2022/05/01 00:52:16;;;;;;;17.58;11.35;;;3.60;99.90;;;;;;5072998;28;20127;-62
2022/05/01 00:54:44;;;;;;;13.07;10.07;;;3.60;99.90;;;;;;5071709;28;20048;-61
2022/05/01 00:57:11;;;;;;;16.00;9.52;;;3.60;99.90;;;;;;5072175;28;20135;-63
2022/05/01 00:59:39;;;;;;;12.93;10.00;;;3.50;99.90;;;;;;5072731;28;20119;-63
2022/05/01 01:02:07;;;;;;;14.20;10.95;;;3.50;99.90;;;;;;5071300;28;20579;-62
2022/05/01 01:04:34;;;;;;;14.27;11.10;;;3.50;99.90;;;;;;5071845;28;20135;-62
2022/05/01 01:07:02;;;;;;;15.55;10.38;;;3.50;99.90;;;;;;5072454;28;20079;-63
2022/05/01 01:09:30;;;;;;;12.30;8.85;;;3.40;99.90;;;;;;5070121;28;20508;-63
2022/05/01 01:14:42;;;;;;;12.45;9.30;;;3.30;99.90;;;;;;5072915;28;20040;-63
2022/05/01 01:17:10;;;;;;;12.63;9.18;;;3.30;99.90;;;;;;5070373;28;20484;-62
2022/05/01 01:19:37;;;;;;;15.15;9.27;;;3.20;99.90;;;;;;5072251;28;20488;-63
2022/05/01 01:22:08;;;;;;;12.13;8.80;;;3.20;99.90;;;;;;5071388;28;20156;-63
2022/05/01 01:24:37;;;;;;;16.60;9.75;;;3.10;99.90;;;;;;5071715;28;20080;-63
2022/05/01 01:27:05;;;;;;;13.80;9.13;;;3.10;99.90;;;;;;5071215;28;20102;-62
2022/05/01 01:32:19;;;;;;;13.65;10.25;;;3.10;99.90;;;;;;5070858;28;20080;-63
2022/05/01 01:34:49;;;;;;;15.15;10.68;;;3.10;99.90;;;;;;5072689;28;20136;-63
2022/05/01 01:37:17;;;;;;;13.63;10.00;;;3.10;99.90;;;;;;5070374;28;20060;-63
2022/05/01 01:39:45;;;;;;;13.20;9.88;;;3.00;99.90;;;;;;5070048;28;20575;-63
2022/05/01 01:42:14;;;;;;;13.48;10.45;;;3.20;99.90;;;;;;5070401;28;20040;-63
2022/05/01 01:44:41;;;;;;;15.80;10.00;;;3.00;99.90;;;;;;5070797;28;20522;-62
2022/05/01 01:47:08;;;;;;;14.60;9.38;;;3.00;99.90;;;;;;5071901;28;20074;-63
2022/05/01 01:49:35;;;;;;;12.30;9.00;;;3.00;99.90;;;;;;5071825;28;20467;-63
2022/05/01 01:52:02;;;;;;;12.38;8.90;;;3.00;99.90;;;;;;5071646;28;20094;-63
2022/05/01 01:54:30;;;;;;;12.25;9.23;;;3.00;99.90;;;;;;5070953;28;20488;-63
2022/05/01 01:56:57;;;;;;;15.20;10.88;;;2.90;99.90;;;;;;5071110;28;20088;-61
2022/05/01 01:59:23;;;;;;;19.55;12.73;;;2.90;99.90;;;;;;5069752;28;20048;-62
2022/05/01 02:01:50;;;;;;;23.33;13.35;;;2.80;99.90;;;;;;5070050;28;20088;-62
2022/05/01 02:04:17;;;;;;;17.35;12.05;;;2.80;99.90;;;;;;5070538;28;20102;-62
2022/05/01 02:06:44;;;;;;;18.10;11.43;;;2.80;99.90;;;;;;5071825;28;20076;-63
2022/05/01 02:09:12;;;;;;;18.58;11.02;;;2.80;99.90;;;;;;5071576;28;20080;-62
2022/05/01 02:11:40;;;;;;;14.00;10.32;;;2.70;99.90;;;;;;5070427;28;20550;-63
2022/05/01 02:14:07;;;;;;;14.13;9.20;;;2.70;99.90;;;;;;5070042;28;20470;-62
2022/05/01 02:16:34;;;;;;;12.38;8.77;;;2.70;99.90;;;;;;5064539;28;20098;-62
2022/05/01 02:19:01;;;;;;;11.68;9.00;;;2.70;99.90;;;;;;5051237;28;20092;-62
2022/05/01 02:21:37;;;;;;;11.13;7.80;;;2.70;99.90;;;;;;5051623;28;20049;-62
2022/05/01 02:24:07;;;;;;;10.57;7.53;;;2.60;99.90;;;;;;5060239;28;20563;-62
2022/05/01 02:26:35;;;;;;;12.27;9.20;;;2.60;99.90;;;;;;5071590;28;20052;-62
2022/05/01 02:29:09;;;;;;;13.82;9.43;;;2.60;99.90;;;;;;5071446;28;20068;-62
2022/05/01 02:31:38;;;;;;;13.88;10.13;;;2.50;99.90;;;;;;5072330;28;20466;-63
2022/05/01 02:34:04;;;;;;;15.07;10.75;;;2.50;99.90;;;;;;5070166;28;20057;-63
2022/05/01 02:36:31;;;;;;;15.32;10.48;;;2.50;99.90;;;;;;5070104;28;20091;-63
2022/05/01 02:38:58;;;;;;;14.88;9.18;;;2.50;99.90;;;;;;5069764;28;20466;-64
2022/05/01 02:41:25;;;;;;;11.85;8.27;;;2.50;99.90;;;;;;5071284;28;20480;-63
2022/05/01 02:43:53;;;;;;;12.30;9.20;;;2.50;99.90;;;;;;5071631;28;20135;-63
2022/05/01 02:46:22;;;;;;;13.10;9.57;;;2.50;99.90;;;;;;5070392;28;20492;-63
2022/05/01 02:48:49;;;;;;;14.13;11.02;;;2.50;99.90;;;;;;5069545;28;20087;-63
2022/05/01 02:51:16;;;;;;;13.25;9.65;;;2.50;99.90;;;;;;5070388;28;20063;-63
2022/05/01 02:53:43;;;;;;;12.10;9.18;;;2.50;99.90;;;;;;5073732;28;20095;-63
2022/05/01 02:56:10;;;;;;;9.30;7.20;;;2.40;99.90;;;;;;5074960;28;20055;-63
2022/05/01 02:58:36;;;;;;;8.65;6.97;;;2.40;99.90;;;;;;5073709;28;20468;-62
2022/05/01 03:01:03;;;;;;;9.77;7.65;;;2.40;99.90;;;;;;5075026;28;20095;-63
2022/05/01 03:03:31;;;;;;;13.75;10.02;;;2.30;99.90;;;;;;5074565;28;20107;-63
2022/05/01 03:05:59;;;;;;;13.38;9.00;;;2.30;99.90;;;;;;5075016;28;20083;-63
2022/05/01 03:08:27;;;;;;;16.05;10.25;;;2.30;99.90;;;;;;5073609;28;20057;-63
2022/05/01 03:10:54;;;;;;;12.70;9.32;;;2.30;99.90;;;;;;5073079;28;20040;-63
2022/05/01 03:13:20;;;;;;;15.18;9.68;;;2.20;99.90;;;;;;5073666;28;20668;-63
2022/05/01 03:15:47;;;;;;;13.20;9.98;;;2.20;99.90;;;;;;5072946;28;20090;-63
2022/05/01 03:23:45;;;;;;;9.07;7.78;;;2.10;99.90;;;;;;5072779;28;20048;-63
2022/05/01 03:26:12;;;;;;;11.48;8.07;;;2.10;99.90;;;;;;5073387;28;20106;-63
2022/05/01 03:28:39;;;;;;;10.85;8.15;;;2.10;99.90;;;;;;5073228;28;20535;-63
2022/05/01 03:31:09;;;;;;;8.93;8.02;;;2.10;99.90;;;;;;5072766;28;20052;-63
2022/05/01 03:33:36;;;;;;;10.43;7.93;;;2.00;99.90;;;;;;5073213;28;20053;-63
2022/05/01 03:36:06;;;;;;;7.43;6.63;;;2.00;99.90;;;;;;5074432;28;20139;-62
2022/05/01 03:38:36;;;;;;;7.53;6.35;;;1.90;99.90;;;;;;5073570;28;20048;-62
2022/05/01 03:41:04;;;;;;;6.90;6.20;;;1.90;99.90;;;;;;5074451;28;20101;-62
2022/05/01 03:43:32;;;;;;;8.60;6.72;;;1.90;99.90;;;;;;5074771;28;20131;-63
2022/05/01 03:45:59;;;;;;;7.47;6.28;;;1.90;99.90;;;;;;5073892;28;20054;-63
2022/05/01 03:48:26;;;;;;;6.95;5.97;;;1.80;99.90;;;;;;5073759;28;20082;-62
2022/05/01 03:50:54;;;;;;;7.90;7.10;;;1.70;99.90;;;;;;5073897;28;20127;-63
2022/05/01 03:53:23;;;;;;;6.95;5.60;;;1.70;99.90;;;;;;5073121;28;20133;-62
2022/05/01 03:55:51;;;;;;;7.03;6.22;;;1.60;99.90;;;;;;5073732;28;20551;-63
2022/05/01 03:58:18;;;;;;;7.22;6.35;;;1.60;99.90;;;;;;5071245;28;20137;-63
2022/05/01 04:00:47;;;;;;;7.90;7.10;;;1.60;99.90;;;;;;5072538;28;20563;-63
2022/05/01 04:03:14;;;;;;;7.05;6.35;;;1.60;99.90;;;;;;5072885;28;20083;-62
2022/05/01 04:05:41;;;;;;;7.57;6.78;;;1.50;99.90;;;;;;5073277;28;20088;-63
2022/05/01 04:08:09;;;;;;;8.05;6.82;;;1.50;99.90;;;;;;5073572;28;20083;-63
2022/05/01 04:10:38;;;;;;;7.88;6.57;;;1.50;99.90;;;;;;5074067;28;20049;-63
2022/05/01 04:13:05;;;;;;;8.18;6.72;;;1.50;99.90;;;;;;5073591;28;20400;-63
2022/05/01 04:15:32;;;;;;;8.73;7.45;;;1.50;99.90;;;;;;5073864;28;20273;-62
2022/05/01 04:17:59;;;;;;;8.55;7.50;;;1.50;99.90;;;;;;5073158;28;20123;-63
2022/05/01 04:20:26;;;;;;;8.68;7.47;;;1.60;99.90;;;;;;5053472;28;20041;-63
2022/05/01 04:22:53;;;;;;;8.18;7.25;;;1.50;99.90;;;;;;5052457;28;20060;-63
2022/05/01 04:25:22;;;;;;;9.02;7.50;;;1.60;99.90;;;;;;5051964;28;20072;-63
2022/05/01 04:27:52;;;;;;;8.82;7.07;;;1.80;99.90;;;;;;5051345;28;20136;-62
2022/05/01 04:30:20;;;;;;;7.93;6.38;;;1.60;99.90;;;;;;5051596;28;20052;-62
2022/05/01 04:32:53;;;;;;;7.72;6.95;;;1.60;99.90;;;;;;5056527;28;20072;-63
2022/05/01 04:35:22;;;;;;;7.18;6.47;;;1.70;99.90;;;;;;5072386;28;20044;-63
2022/05/01 04:37:49;;;;;;;8.45;7.22;;;1.70;99.90;;;;;;5071910;28;20573;-63
2022/05/01 04:40:16;;;;;;;8.27;7.20;;;1.70;99.90;;;;;;5072618;28;20123;-63
2022/05/01 04:42:43;;;;;;;7.95;6.78;;;1.80;99.90;;;;;;5073655;28;20140;-63
2022/05/01 04:45:12;;;;;;;8.10;6.38;;;1.80;99.90;;;;;;5072157;28;20561;-63
2022/05/01 04:47:39;;;;;;;8.05;7.03;;;1.90;99.90;;;;;;5070817;28;20053;-63
2022/05/01 04:50:08;;;;;;;8.45;6.63;;;2.00;99.90;;;;;;5072945;28;20396;-63
2022/05/01 04:52:38;;;;;;;7.20;6.28;;;2.00;99.90;;;;;;5073384;28;20049;-63
2022/05/01 04:55:06;;;;;;;8.00;7.17;;;2.10;99.90;;;;;;5072350;28;20052;-61
2022/05/01 04:57:33;;;;;;;8.50;6.43;;;2.20;99.90;;;;;;5071463;28;20370;-62
2022/05/01 05:00:00;;;;;;;7.72;6.80;;;2.30;99.90;;;;;;5072964;28;20048;-62
2022/05/01 05:02:39;;;;;;;10.35;8.18;;;2.40;99.90;;;;;;5070409;28;20131;-62
2022/05/01 05:05:07;;;;;;;9.77;8.27;;;2.50;99.90;;;;;;5071248;28;20060;-62
2022/05/01 05:07:34;;;;;;;11.35;8.23;;;2.60;99.90;;;;;;5072531;28;20446;-62
2022/05/01 05:10:01;;;;;;;8.82;7.40;;;2.70;99.90;;;;;;5070896;28;20080;-62
2022/05/01 05:12:28;;;;;;;9.68;7.55;;;2.80;99.90;;;;;;5071652;28;20101;-62
2022/05/01 05:14:58;;;;;;;9.48;8.23;;;3.00;99.90;;;;;;5071190;28;20051;-62
2022/05/01 05:17:26;;;;;;;11.10;8.25;;;3.10;99.90;;;;;;5071254;28;20496;-63
2022/05/01 05:19:55;;;;;;;9.10;7.80;;;3.30;99.90;;;;;;5072627;28;20547;-62
2022/05/01 05:22:22;;;;;;;8.90;7.57;;;3.40;99.90;;;;;;5072598;28;20136;-63
2022/05/01 05:24:48;;;;;;;9.30;8.30;;;3.50;99.90;;;;;;5071580;28;20135;-62
2022/05/01 05:27:17;;;;;;;8.23;7.35;;;3.60;99.90;;;;;;5071594;28;20049;-63
2022/05/01 05:29:44;;;;;;;8.50;7.60;;;3.70;99.90;;;;;;5069932;28;20351;-62
2022/05/01 05:32:11;;;;;;;9.13;7.85;;;3.90;99.90;;;;;;5071309;28;20139;-62
2022/05/01 05:34:37;;;;;;;9.88;8.32;;;4.00;99.90;;;;;;5072612;28;20131;-62
2022/05/01 05:37:07;;;;;;;10.20;8.15;;;4.10;99.90;;;;;;5071768;28;20487;-62
2022/05/01 05:39:33;;;;;;;9.05;7.57;;;4.30;99.90;;;;;;5070671;28;20090;-62
2022/05/01 05:42:00;;;;;;;9.98;8.50;;;4.40;99.90;;;;;;5072173;28;20132;-62
2022/05/01 05:44:27;;;;;;;10.18;7.82;;;4.50;99.90;;;;;;5070069;28;20128;-62
2022/05/01 05:46:54;;;;;;;9.05;8.07;;;4.70;99.90;;;;;;5051620;28;20131;-62
2022/05/01 05:49:20;;;;;;;8.68;7.80;;;5.10;99.90;;;;;;5051464;28;20136;-62
2022/05/01 05:51:48;;;;;;;9.05;8.15;;;5.20;99.90;;;;;;5057631;28;20055;-62
2022/05/01 05:54:16;;;;;;;9.57;7.93;;;5.40;99.90;;;;;;5068032;28;20088;-62
2022/05/01 05:56:43;;;;;;;10.90;8.15;;;5.70;99.90;;;;;;5070575;28;20464;-63
2022/05/01 05:59:10;;;;;;;9.45;8.00;;;5.90;99.90;;;;;;5068412;28;20132;-62
2022/05/01 06:01:37;;;;;;;9.38;8.07;;;6.20;99.90;;;;;;5070286;28;20454;-63
2022/05/01 06:04:04;;;;;;;11.77;8.45;;;6.50;99.90;;;;;;5071374;28;20087;-63
2022/05/01 06:06:31;;;;;;;10.63;8.68;;;6.70;99.90;;;;;;5060979;28;20077;-62
2022/05/01 06:08:58;;;;;;;11.55;8.43;;;7.10;99.90;;;;;;5056130;28;20084;-63
2022/05/01 06:11:26;;;;;;;10.35;8.43;;;7.30;99.90;;;;;;5057221;28;20132;-63
2022/05/01 06:13:53;;;;;;;11.52;9.13;;;7.60;99.90;;;;;;5051675;28;20140;-62
2022/05/01 06:16:20;;;;;;;8.88;7.53;;;7.90;99.90;;;;;;5056708;28;20049;-63
2022/05/01 06:18:47;;;;;;;9.77;7.32;;;8.00;99.90;;;;;;5054665;28;20140;-62
2022/05/01 06:21:14;;;;;;;12.35;7.40;;;8.30;99.90;;;;;;5049362;28;20064;-63
2022/05/01 06:23:41;;;;;;;9.05;7.50;;;8.50;99.90;;;;;;5056121;28;20088;-62
2022/05/01 06:26:08;;;;;;;10.05;6.60;;;8.80;99.90;;;;;;5052711;28;20049;-65
2022/05/01 06:28:36;;;;;;;8.85;7.05;;;9.20;99.90;;;;;;5059694;28;20048;-62
2022/05/01 06:31:04;;;;;;;8.52;6.90;;;9.70;99.90;;;;;;5058584;28;20126;-62
2022/05/01 06:33:34;;;;;;;11.43;6.95;;;10.20;99.90;;;;;;5057593;28;20052;-63
2022/05/01 06:36:02;;;;;;;9.38;6.93;;;10.80;99.90;;;;;;5059083;28;20052;-62
2022/05/01 06:38:29;;;;;;;8.00;6.05;;;11.50;99.90;;;;;;5059473;28;20080;-62
2022/05/01 06:40:56;;;;;;;9.85;6.55;;;12.10;99.90;;;;;;5058718;28;20068;-63
2022/05/01 06:43:23;;;;;;;8.43;6.05;;;12.80;99.90;;;;;;5060336;28;20087;-63
2022/05/01 06:45:51;;;;;;;10.02;6.20;;;13.30;99.90;;;;;;5058171;28;20056;-63
2022/05/01 06:48:18;;;;;;;8.57;6.03;;;13.90;99.90;;;;;;5068501;28;20508;-63
2022/05/01 06:50:45;;;;;;;6.47;4.95;;;14.10;99.90;;;;;;5060597;28;20077;-63
2022/05/01 06:53:12;;;;;;;8.13;5.00;;;14.50;99.90;;;;;;5064522;28;20098;-63
2022/05/01 06:55:39;;;;;;;9.32;5.28;;;15.00;99.90;;;;;;5053480;28;20088;-63
2022/05/01 06:58:06;;;;;;;8.55;4.10;;;15.30;99.90;;;;;;5066141;28;20111;-63
2022/05/01 07:00:33;;;;;;;8.60;4.40;;;15.70;99.90;;;;;;5058501;28;20211;-63
2022/05/01 07:03:01;;;;;;;8.60;4.78;;;16.10;99.90;;;;;;5057116;28;20053;-63
2022/05/01 07:05:28;;;;;;;12.65;4.97;;;16.30;99.90;;;;;;5057686;28;20124;-63
2022/05/01 07:07:55;;;;;;;7.07;4.63;;;16.50;99.90;;;;;;5058071;28;20148;-63
2022/05/01 07:10:23;;;;;;;7.80;4.57;;;17.00;99.70;;;;;;5059367;28;20048;-64
2022/05/01 07:12:50;;;;;;;5.40;4.00;;;17.10;98.40;;;;;;5055993;28;20080;-64
2022/05/01 07:15:17;;;;;;;6.45;4.35;;;16.70;93.60;;;;;;5062641;28;20188;-63
2022/05/01 07:17:44;;;;;;;8.32;4.68;;;16.90;97.40;;;;;;5064060;28;20148;-63
2022/05/01 07:20:13;;;;;;;5.50;4.80;;;17.40;97.00;;;;;;5064526;28;20128;-63
2022/05/01 07:22:40;;;;;;;6.05;4.95;;;17.10;95.10;;;;;;5056964;28;20123;-64
2022/05/01 07:25:07;;;;;;;6.28;4.53;;;17.50;96.00;;;;;;5055136;28;20068;-63
2022/05/01 07:27:34;;;;;;;5.85;4.55;;;17.70;94.80;;;;;;5057312;28;20465;-63
2022/05/01 07:30:01;;;;;;;5.72;4.15;;;17.40;94.30;;;;;;5067025;28;20079;-64
2022/05/01 07:32:28;;;;;;;8.30;4.57;;;17.80;94.40;;;;;;5058398;28;20576;-64
2022/05/01 07:34:55;;;;;;;5.68;4.05;;;17.80;94.00;;;;;;5060873;28;20461;-64
2022/05/01 07:37:24;;;;;;;6.35;4.07;;;17.40;92.60;;;;;;5062480;28;20045;-64
2022/05/01 07:39:52;;;;;;;5.80;4.35;;;17.10;92.90;;;;;;5062105;28;20114;-64
2022/05/01 07:42:19;;;;;;;6.72;4.32;;;17.80;92.70;;;;;;5056764;28;20049;-63
2022/05/01 07:44:46;;;;;;;6.53;4.03;;;18.00;91.80;;;;;;5071622;28;20095;-64
2022/05/01 07:47:12;;;;;;;5.75;3.53;;;18.70;90.80;;;;;;5071479;28;20079;-65
2022/05/01 07:49:39;;;;;;;6.25;3.92;;;19.40;89.40;;;;;;5073742;28;20127;-64
2022/05/01 07:52:07;;;;;;;4.97;3.67;;;19.60;85.60;;;;;;5054549;28;20544;-64
2022/05/01 07:54:36;;;;;;;4.38;3.40;;;19.50;83.00;;;;;;5021215;28;20048;-66
2022/05/01 07:57:03;;;;;;;4.40;3.50;;;19.40;83.10;;;;;;5049968;28;20806;-63
2022/05/01 07:59:30;;;;;;;5.00;3.70;;;18.70;81.90;;;;;;5052176;28;20516;-64
2022/05/01 08:01:56;;;;;;;6.25;4.20;;;18.70;82.70;;;;;;5044940;28;20053;-63
2022/05/01 08:04:28;;;;;;;6.75;3.58;;;19.10;82.00;;;;;;5048991;28;20469;-63
2022/05/01 08:06:57;;;;;;;5.68;4.05;;;19.40;80.70;;;;;;5051667;28;20415;-64
2022/05/01 08:09:24;;;;;;;5.38;3.42;;;19.30;80.20;;;;;;5048224;28;20096;-63
2022/05/01 08:11:52;;;;;;;7.55;4.28;;;19.30;80.40;;;;;;5050312;28;20155;-65
2022/05/01 08:14:20;;;;;;;5.22;3.67;;;18.30;78.30;;;;;;5048715;28;21298;-63
2022/05/01 08:16:48;;;;;;;6.45;4.50;;;17.60;82.10;;;;;;5046538;28;20052;-63
2022/05/01 08:21:59;;;;;;;10.35;4.35;;;16.40;84.30;;;;;;5052389;28;20044;-63
2022/05/01 08:24:26;;;;;;;6.78;3.50;;;16.10;85.40;;;;;;5046618;28;20052;-63
2022/05/01 08:26:54;;;;;;;6.63;3.50;;;15.70;85.40;;;;;;5050733;28;20159;-63
2022/05/01 08:29:21;;;;;;;5.60;3.55;;;15.60;85.50;;;;;;5046601;28;20152;-65
2022/05/01 08:31:48;;;;;;;4.38;3.22;;;15.80;84.60;;;;;;5050204;28;20500;-63
2022/05/01 08:34:16;;;;;;;4.82;3.50;;;16.50;83.80;;;;;;5049236;28;20475;-63
2022/05/01 08:36:45;;;;;;;5.70;3.35;;;17.30;83.00;;;;;;5051110;28;20092;-63
2022/05/01 08:39:12;;;;;;;6.75;3.95;;;17.90;81.10;;;;;;5050591;28;20060;-63
2022/05/01 08:41:38;;;;;;;7.57;3.75;;;18.40;79.40;;;;;;5051649;28;20147;-63
2022/05/01 08:44:12;;;;;;;6.13;3.75;;;18.80;78.40;;;;;;5046287;28;20428;-64
2022/05/01 08:46:50;;;;;;;6.20;3.35;;;19.70;74.90;;;;;;5045926;28;20549;-65
2022/05/01 08:49:18;;;;;;;9.10;3.72;;;20.10;75.60;;;;;;5048010;28;20144;-65
2022/05/01 08:51:46;;;;;;;4.65;3.30;;;20.10;74.70;;;;;;5047487;28;20136;-64
2022/05/01 08:54:14;;;;;;;4.95;3.72;;;20.10;73.40;;;;;;5043345;28;20504;-65
2022/05/01 08:56:43;;;;;;;5.90;4.03;;;20.20;73.50;;;;;;5052582;28;20099;-65
2022/05/01 08:59:14;;;;;;;5.53;3.13;;;19.90;72.50;;;;;;5044145;28;20151;-65
2022/05/01 09:01:42;;;;;;;4.72;3.33;;;20.00;72.60;;;;;;5045659;28;20061;-65
2022/05/01 09:04:12;;;;;;;4.30;3.10;;;20.20;72.10;;;;;;5049193;28;20705;-65
2022/05/01 09:06:40;;;;;;;4.38;3.28;;;20.70;72.20;;;;;;5044126;28;20070;-65
2022/05/01 09:09:08;;;;;;;5.13;2.80;;;20.90;71.70;;;;;;5045443;28;20076;-65
2022/05/01 09:14:23;;;;;;;11.57;4.03;;;20.50;70.70;;;;;;5052257;28;20549;-65
2022/05/01 09:17:12;;;;;;;5.63;3.17;;;20.50;70.30;;;;;;5047622;28;20226;-66
2022/05/01 09:19:39;;;;;;;4.82;3.60;;;20.50;69.20;;;;;;5047514;28;20100;-65
2022/05/01 09:22:06;;;;;;;4.45;3.53;;;20.30;70.80;;;;;;5050343;28;20583;-65
2022/05/01 09:24:33;;;;;;;4.75;3.60;;;20.10;70.30;;;;;;5049205;28;20523;-65
2022/05/01 09:27:01;;;;;;;6.18;3.50;;;19.70;70.70;;;;;;5049280;28;20476;-65
2022/05/01 09:29:34;;;;;;;3.90;3.35;;;19.70;71.50;;;;;;5042918;28;20829;-64
2022/05/01 09:32:03;;;;;;;6.00;3.47;;;19.70;71.10;;;;;;5044540;28;20052;-63
2022/05/01 09:34:32;;;;;;;7.93;3.90;;;19.80;71.70;;;;;;5046170;28;20056;-65
2022/05/01 09:37:02;;;;;;;3.78;3.00;;;20.00;71.30;;;;;;5045265;28;20057;-64
2022/05/01 09:39:30;;;;;;;3.92;2.88;;;20.00;70.00;;;;;;5049163;28;20122;-64
2022/05/01 09:42:14;;;;;;;6.78;3.85;;;20.10;69.60;;;;;;5049871;28;20048;-65
2022/05/01 09:44:42;;;;;;;5.05;3.60;;;19.90;67.90;;;;;;5041984;28;20107;-65
2022/05/01 09:47:09;;;;;;;6.75;3.88;;;19.80;69.60;;;;;;5047814;28;20143;-65
2022/05/01 09:49:48;;;;;;;3.90;3.03;;;19.60;69.90;;;;;;5045877;28;20397;-65
2022/05/01 09:52:16;;;;;;;5.68;3.28;;;19.50;68.20;;;;;;5048392;28;20943;-64
2022/05/01 09:55:01;;;;;;;6.85;3.65;;;19.10;69.30;;;;;;5047165;28;20100;-65
2022/05/01 09:57:28;;;;;;;5.38;3.40;;;19.30;69.60;;;;;;5042505;28;20148;-65
2022/05/01 09:59:56;;;;;;;6.07;3.80;;;19.20;69.90;;;;;;5047532;28;20479;-65
2022/05/01 10:02:29;;;;;;;4.80;3.17;;;19.30;70.00;;;;;;5047570;28;20598;-67
2022/05/01 10:05:02;;;;;;;6.65;3.35;;;19.50;69.10;;;;;;5043329;28;20490;-65
2022/05/01 10:07:34;;;;;;;3.92;2.90;;;19.80;69.40;;;;;;5043668;28;20149;-65
2022/05/01 10:10:02;;;;;;;5.43;3.17;;;20.10;68.50;;;;;;5044725;28;20144;-66
2022/05/01 10:12:30;;;;;;;4.97;3.28;;;20.20;67.70;;;;;;5049697;28;20044;-64
2022/05/01 10:14:58;;;;;;;4.10;3.20;;;20.30;67.30;;;;;;5049178;28;20083;-63
2022/05/01 10:17:25;;;;;;;4.25;3.20;;;20.00;67.20;;;;;;5048815;28;20091;-66
2022/05/01 10:19:53;;;;;;;6.03;3.15;;;20.30;67.60;;;;;;5048274;28;20122;-64
2022/05/01 10:22:21;;;;;;;5.28;3.15;;;20.40;66.60;;;;;;5050155;28;20049;-66
2022/05/01 10:24:49;;;;;;;5.30;3.05;;;20.30;66.30;;;;;;5051346;28;20500;-66
2022/05/01 10:27:25;;;;;;;4.00;3.25;;;20.30;66.20;;;;;;5040275;28;20053;-61
2022/05/01 10:33:14;;;;;;;10.90;3.42;;;20.40;65.40;;;;;;5042949;28;20103;-62
2022/05/01 10:36:18;;;;;;;5.97;3.38;;;20.70;65.00;;;;;;5042115;28;20060;-62
2022/05/01 10:38:58;;;;;;;6.28;3.50;;;20.80;64.40;;;;;;5035529;28;20044;-63
2022/05/01 10:41:25;;;;;;;6.10;3.85;;;20.30;65.50;;;;;;5065218;28;20139;-63
2022/05/01 10:43:56;;;;;;;6.00;3.40;;;19.80;65.00;;;;;;5066802;28;20216;-63
2022/05/01 10:46:32;;;;;;;3.97;3.28;;;19.50;68.20;;;;;;5068701;28;20048;-63
2022/05/01 10:49:05;;;;;;;4.95;2.97;;;20.30;66.70;;;;;;5069240;28;20087;-63
2022/05/01 10:51:47;;;;;;;6.03;3.17;;;19.90;66.60;;;;;;5063090;28;20071;-63
2022/05/01 10:54:35;;;;;;;4.93;2.92;;;20.00;66.10;;;;;;5063807;28;20060;-65
2022/05/01 10:57:24;;;;;;;7.03;3.35;;;20.10;66.10;;;;;;5070148;28;20040;-62
2022/05/01 11:00:03;;;;;;;6.00;2.88;;;19.80;64.90;;;;;;5069384;28;20056;-63
2022/05/01 11:02:39;;;;;;;5.25;2.95;;;19.80;66.40;;;;;;5068221;28;20110;-63
2022/05/01 11:05:08;;;;;;;7.35;3.15;;;19.60;65.30;;;;;;5067306;28;20055;-64
2022/05/01 11:07:37;;;;;;;4.78;3.15;;;19.30;66.20;;;;;;5067882;28;20079;-63
2022/05/01 11:10:06;;;;;;;9.20;2.88;;;19.30;66.10;;;;;;5068254;28;20052;-72
2022/05/01 11:12:35;;;;;;;4.38;3.10;;;19.30;67.00;;;;;;5070632;28;20076;-63
2022/05/01 11:15:04;;;;;;;4.95;2.97;;;19.30;67.40;;;;;;5073523;28;20080;-63
2022/05/01 11:17:52;;;;;;;5.78;3.08;;;19.30;67.40;;;;;;5071683;28;20076;-62
2022/05/01 11:20:43;;;;;;;5.72;3.20;;;19.30;67.50;;;;;;5072761;28;20385;-62
2022/05/01 11:23:33;;;;;;;4.70;3.13;;;19.30;66.40;;;;;;5042517;28;20052;-62
2022/05/01 11:26:21;;;;;;;5.20;3.22;;;19.30;67.10;;;;;;5071194;28;20445;-62
2022/05/01 11:28:53;;;;;;;4.90;2.90;;;19.30;65.90;;;;;;5061693;28;20572;-62
2022/05/01 11:31:44;;;;;;;3.47;2.88;;;19.80;67.10;;;;;;5071912;28;20040;-62
2022/05/01 11:34:37;;;;;;;6.15;3.20;;;20.40;66.10;;;;;;5072888;28;20444;-63
2022/05/01 11:37:07;;;;;;;7.47;3.47;;;20.50;64.10;;;;;;5066947;28;20052;-63
2022/05/01 11:40:19;;;;;;;4.65;3.40;;;20.50;65.30;;;;;;5070746;28;20139;-63
2022/05/01 11:42:46;;;;;;;3.97;2.80;;;20.50;63.10;;;;;;5017960;28;20572;-63
2022/05/01 11:45:13;;;;;;;5.70;2.92;;;20.40;64.60;;;;;;5073030;28;20569;-63
2022/05/01 11:47:42;;;;;;;3.60;2.70;;;20.60;64.20;;;;;;5071428;28;20479;-63
2022/05/01 11:50:20;;;;;;;5.10;3.25;;;20.90;63.80;;;;;;5070805;28;20052;-63
2022/05/01 11:52:50;;;;;;;7.05;3.30;;;21.30;62.70;;;;;;5070253;28;20151;-63
2022/05/01 11:55:19;;;;;;;7.00;3.38;;;21.70;62.10;;;;;;5064621;28;20041;-63
2022/05/01 12:03:33;;;;;;;3.67;2.65;;;22.00;61.70;;;;;;5020337;28;20489;-63
2022/05/01 12:06:02;;;;;;;6.45;2.95;;;21.90;61.60;;;;;;5052563;28;20124;-62
2022/05/01 12:08:28;;;;;;;4.00;2.50;;;22.30;61.00;;;;;;5050908;28;20092;-63
2022/05/01 12:10:55;;;;;;;3.53;2.83;;;22.80;60.50;;;;;;5065253;28;20135;-63
2022/05/01 12:13:23;;;;;;;4.90;3.00;;;22.90;59.00;;;;;;5072811;28;20072;-63
2022/05/01 12:15:51;;;;;;;3.20;2.22;;;23.30;58.80;;;;;;5072337;28;20377;-64
2022/05/01 12:18:19;;;;;;;5.65;2.83;;;23.60;58.40;;;;;;5070649;28;20584;-64
2022/05/01 12:20:46;;;;;;;4.25;2.55;;;23.60;57.90;;;;;;5071379;28;20472;-64
2022/05/01 12:23:16;;;;;;;5.18;2.58;;;23.60;58.40;;;;;;5072697;28;20146;-64
2022/05/01 12:25:44;;;;;;;;;;;23.90;57.70;;;;;;5071516;28;20106;-64
2022/05/01 12:28:12;;;;;;;3.95;2.38;;;24.20;56.80;;;;;;5071966;28;19927;-64
2022/05/01 12:30:39;;;;;;;3.95;2.35;;;24.30;57.40;;;;;;5069204;28;20049;-64
2022/05/01 12:33:06;;;;;;;3.78;2.03;;;23.90;57.60;;;;;;5067749;28;20076;-64
2022/05/01 12:35:57;;;;;;;5.05;2.70;;;23.70;57.00;;;;;;5054854;28;20132;-63
2022/05/01 12:38:28;;;;;;;4.15;2.30;;;23.50;55.90;;;;;;5071242;28;20048;-63
2022/05/01 12:43:55;;;;;;;3.38;2.60;;;23.40;56.20;;;;;;5072199;28;20076;-64
2022/05/01 12:46:24;;;;;;;3.22;2.13;;;23.70;56.50;;;;;;5069153;28;20091;-62
2022/05/01 12:48:51;;;;;;;2.53;2.17;;;23.40;56.30;;;;;;5056448;28;20529;-63
2022/05/01 12:51:18;;;;;;;3.92;2.00;;;23.60;56.40;;;;;;5052263;28;20120;-63
2022/05/01 12:53:47;;;;;;;3.22;2.17;;;23.20;56.30;;;;;;5049821;28;20102;-63
2022/05/01 12:56:24;;;;;;;3.20;2.20;;;22.80;56.10;;;;;;5069564;28;20075;-63
2022/05/01 12:58:51;;;;;;;4.00;2.67;;;22.60;57.50;;;;;;5070834;28;20585;-63
2022/05/01 13:01:23;;;;;;;4.97;2.50;;;21.60;58.90;;;;;;5070844;28;20084;-64
2022/05/01 13:03:50;;;;;;;3.78;2.70;;;21.70;59.50;;;;;;5071898;28;20043;-62
2022/05/01 13:06:18;;;;;;;4.22;2.35;;;22.00;60.00;;;;;;5052135;28;20076;-63
2022/05/01 13:08:47;;;;;;;3.53;2.45;;;22.00;60.00;;;;;;5050093;28;20084;-63
2022/05/01 13:11:20;;;;;;;3.70;2.17;;;22.20;60.20;;;;;;5068972;28;20488;-63
2022/05/01 13:13:49;;;;;;;5.28;2.72;;;22.80;60.20;;;;;;5071205;28;20053;-65
2022/05/01 13:16:17;;;;;;;5.28;2.45;;;23.60;58.70;;;;;;5070991;28;20079;-62
2022/05/01 13:18:46;;;;;;;3.22;2.50;;;24.20;57.60;;;;;;5071125;28;20127;-65
2022/05/01 13:21:14;;;;;;;5.30;2.40;;;24.70;56.50;;;;;;5070878;28;20140;-66
2022/05/01 13:23:45;;;;;;;6.22;3.05;;;24.90;56.20;;;;;;5071105;28;20056;-64
2022/05/01 13:26:13;;;;;;;4.72;2.30;;;25.50;56.00;;;;;;5058218;28;20087;-66
2022/05/01 13:28:40;;;;;;;3.55;2.42;;;25.80;55.30;;;;;;5049137;28;20467;-64